This is the latest recevied weather packets stored in our database for station/object SP4MAZ-13. If no packets are shown the sender has not sent any weather packets the latest 10 day(s).
| Time | Temp. | Humidity | Pressure | Rain* | Wind** | Luminosity | Snow |
|---|---|---|---|---|---|---|---|
| 1777529956 | 5° C | 70% | 2147.4 hPa | - | - | - | - |
| 1777529652 | 5° C | 70% | 2147.4 hPa | - | - | - | - |
| 1777529350 | 4.44° C | 70% | 2147.4 hPa | - | - | - | - |
| 1777529046 | 4.44° C | 69% | 2147.4 hPa | - | - | - | - |
| 1777528742 | 4.44° C | 71% | 2147.4 hPa | - | - | - | - |
| 1777528439 | 5.56° C | 70% | 2147.4 hPa | - | - | - | - |
| 1777528138 | 5.56° C | 68% | 2147.4 hPa | - | - | - | - |
| 1777527834 | 5° C | 71% | 2147.4 hPa | - | - | - | - |
| 1777527531 | 5° C | 72% | 2147.4 hPa | - | - | - | - |
| 1777527228 | 5° C | 70% | 2147.4 hPa | - | - | - | - |
| 1777526924 | 4.44° C | 72% | 2147.4 hPa | - | - | - | - |
| 1777526620 | 4.44° C | 69% | 2147.4 hPa | - | - | - | - |
| 1777526317 | 5° C | 68% | 2147.4 hPa | - | - | - | - |
| 1777526014 | 4.44° C | 68% | 2147.4 hPa | - | - | - | - |
| 1777525710 | 5° C | 63% | 2147.4 hPa | - | - | - | - |
| 1777525406 | 5.56° C | 60% | 2147.4 hPa | - | - | - | - |
| 1777525103 | 5.56° C | 63% | 2147.4 hPa | - | - | - | - |
| 1777524799 | 5° C | 64% | 2147.4 hPa | - | - | - | - |
| 1777524496 | 3.89° C | 67% | 2147.4 hPa | - | - | - | - |
| 1777524193 | 3.89° C | 65% | 2147.4 hPa | - | - | - | - |
| 1777523889 | 3.33° C | 66% | 2147.4 hPa | - | - | - | - |
| 1777523586 | 2.78° C | 66% | 2147.4 hPa | - | - | - | - |
| 1777523282 | 3.33° C | 69% | 2147.4 hPa | - | - | - | - |
| 1777522979 | 2.22° C | 74% | 2147.4 hPa | - | - | - | - |
| 1777522675 | 1.11° C | 76% | 2147.4 hPa | - | - | - | - |
* Rain since midnight (hover to see other rain measurements)
** Current wind speed in m/s (hover to see current wind gust speed)